sensor_id;sensor_type;location;lat;lon;timestamp;P1;durP1;ratioP1;P2;durP2;ratioP2
10651;SDS011;5374;42.742;23.266;2022-08-19T00:00:45;6.57;;;5.20;;
10651;SDS011;5374;42.742;23.266;2022-08-19T00:03:33;5.60;;;5.00;;
10651;SDS011;5374;42.742;23.266;2022-08-19T00:06:21;5.37;;;4.87;;
10651;SDS011;5374;42.742;23.266;2022-08-19T00:09:10;5.23;;;4.43;;
10651;SDS011;5374;42.742;23.266;2022-08-19T00:12:00;7.83;;;4.77;;
10651;SDS011;5374;42.742;23.266;2022-08-19T00:14:47;5.97;;;5.37;;
10651;SDS011;5374;42.742;23.266;2022-08-19T00:17:34;5.27;;;4.87;;
10651;SDS011;5374;42.742;23.266;2022-08-19T00:20:21;6.10;;;5.50;;
10651;SDS011;5374;42.742;23.266;2022-08-19T00:23:12;5.63;;;5.13;;
10651;SDS011;5374;42.742;23.266;2022-08-19T00:26:00;5.70;;;5.17;;
10651;SDS011;5374;42.742;23.266;2022-08-19T00:28:47;5.40;;;4.90;;
10651;SDS011;5374;42.742;23.266;2022-08-19T00:31:34;5.10;;;4.70;;
10651;SDS011;5374;42.742;23.266;2022-08-19T00:34:22;6.27;;;5.27;;
10651;SDS011;5374;42.742;23.266;2022-08-19T00:37:09;5.90;;;5.30;;
10651;SDS011;5374;42.742;23.266;2022-08-19T00:39:58;5.60;;;5.10;;
10651;SDS011;5374;42.742;23.266;2022-08-19T00:42:45;8.27;;;5.40;;
10651;SDS011;5374;42.742;23.266;2022-08-19T00:45:33;5.53;;;5.03;;
10651;SDS011;5374;42.742;23.266;2022-08-19T00:48:21;5.43;;;4.93;;
10651;SDS011;5374;42.742;23.266;2022-08-19T00:51:08;5.87;;;5.27;;
10651;SDS011;5374;42.742;23.266;2022-08-19T00:53:56;6.63;;;5.20;;
10651;SDS011;5374;42.742;23.266;2022-08-19T00:56:47;5.97;;;5.37;;
10651;SDS011;5374;42.742;23.266;2022-08-19T00:59:36;5.87;;;5.30;;
10651;SDS011;5374;42.742;23.266;2022-08-19T01:02:26;6.27;;;5.60;;
10651;SDS011;5374;42.742;23.266;2022-08-19T01:05:16;6.60;;;5.23;;
10651;SDS011;5374;42.742;23.266;2022-08-19T01:08:06;5.90;;;5.37;;
10651;SDS011;5374;42.742;23.266;2022-08-19T01:10:55;7.73;;;5.67;;
10651;SDS011;5374;42.742;23.266;2022-08-19T01:13:46;5.67;;;5.17;;
10651;SDS011;5374;42.742;23.266;2022-08-19T01:16:33;6.37;;;5.37;;
10651;SDS011;5374;42.742;23.266;2022-08-19T01:19:24;5.80;;;5.30;;
10651;SDS011;5374;42.742;23.266;2022-08-19T01:22:16;6.37;;;5.63;;
10651;SDS011;5374;42.742;23.266;2022-08-19T01:25:13;6.13;;;5.53;;
10651;SDS011;5374;42.742;23.266;2022-08-19T01:28:02;5.90;;;5.40;;
10651;SDS011;5374;42.742;23.266;2022-08-19T01:30:49;5.90;;;5.30;;
10651;SDS011;5374;42.742;23.266;2022-08-19T01:33:37;6.30;;;5.70;;
10651;SDS011;5374;42.742;23.266;2022-08-19T01:36:26;6.13;;;5.63;;
10651;SDS011;5374;42.742;23.266;2022-08-19T01:39:17;5.90;;;5.40;;
10651;SDS011;5374;42.742;23.266;2022-08-19T01:42:08;6.10;;;5.50;;
10651;SDS011;5374;42.742;23.266;2022-08-19T01:44:56;5.63;;;5.13;;
10651;SDS011;5374;42.742;23.266;2022-08-19T01:47:43;6.20;;;5.60;;
10651;SDS011;5374;42.742;23.266;2022-08-19T01:50:31;6.70;;;5.80;;
10651;SDS011;5374;42.742;23.266;2022-08-19T01:53:19;6.20;;;5.60;;
10651;SDS011;5374;42.742;23.266;2022-08-19T01:56:08;7.40;;;5.47;;
10651;SDS011;5374;42.742;23.266;2022-08-19T01:58:55;6.07;;;5.47;;
10651;SDS011;5374;42.742;23.266;2022-08-19T02:01:46;6.73;;;5.53;;
10651;SDS011;5374;42.742;23.266;2022-08-19T02:04:33;6.27;;;5.67;;
10651;SDS011;5374;42.742;23.266;2022-08-19T02:07:23;6.60;;;5.67;;
10651;SDS011;5374;42.742;23.266;2022-08-19T02:10:11;6.30;;;5.70;;
10651;SDS011;5374;42.742;23.266;2022-08-19T02:13:02;10.33;;;6.17;;
10651;SDS011;5374;42.742;23.266;2022-08-19T02:15:49;8.00;;;6.07;;
10651;SDS011;5374;42.742;23.266;2022-08-19T02:18:36;8.67;;;5.83;;
10651;SDS011;5374;42.742;23.266;2022-08-19T02:21:24;10.47;;;6.07;;
10651;SDS011;5374;42.742;23.266;2022-08-19T02:24:11;6.57;;;5.97;;
10651;SDS011;5374;42.742;23.266;2022-08-19T02:26:58;8.43;;;6.73;;
10651;SDS011;5374;42.742;23.266;2022-08-19T02:29:47;7.60;;;5.97;;
10651;SDS011;5374;42.742;23.266;2022-08-19T02:32:35;9.17;;;6.30;;
10651;SDS011;5374;42.742;23.266;2022-08-19T02:35:22;8.80;;;6.30;;
10651;SDS011;5374;42.742;23.266;2022-08-19T02:38:09;8.77;;;5.80;;
10651;SDS011;5374;42.742;23.266;2022-08-19T02:41:16;6.90;;;6.20;;
10651;SDS011;5374;42.742;23.266;2022-08-19T02:44:06;8.27;;;6.37;;
10651;SDS011;5374;42.742;23.266;2022-08-19T02:46:55;9.60;;;6.40;;
10651;SDS011;5374;42.742;23.266;2022-08-19T02:49:42;10.07;;;7.17;;
10651;SDS011;5374;42.742;23.266;2022-08-19T02:52:30;9.63;;;6.53;;
10651;SDS011;5374;42.742;23.266;2022-08-19T02:55:18;10.73;;;6.43;;
10651;SDS011;5374;42.742;23.266;2022-08-19T02:58:06;6.60;;;6.00;;
10651;SDS011;5374;42.742;23.266;2022-08-19T03:00:54;7.67;;;6.60;;
10651;SDS011;5374;42.742;23.266;2022-08-19T03:03:44;8.90;;;6.77;;
10651;SDS011;5374;42.742;23.266;2022-08-19T03:06:32;7.50;;;6.50;;
10651;SDS011;5374;42.742;23.266;2022-08-19T03:09:22;7.90;;;6.97;;
10651;SDS011;5374;42.742;23.266;2022-08-19T03:12:10;7.50;;;6.70;;
10651;SDS011;5374;42.742;23.266;2022-08-19T03:14:57;8.30;;;7.50;;
10651;SDS011;5374;42.742;23.266;2022-08-19T03:17:44;8.13;;;7.33;;
10651;SDS011;5374;42.742;23.266;2022-08-19T03:20:33;7.60;;;6.90;;
10651;SDS011;5374;42.742;23.266;2022-08-19T03:23:20;8.67;;;7.70;;
10651;SDS011;5374;42.742;23.266;2022-08-19T03:26:08;8.07;;;7.27;;
10651;SDS011;5374;42.742;23.266;2022-08-19T03:28:55;7.87;;;7.07;;
10651;SDS011;5374;42.742;23.266;2022-08-19T03:31:43;8.00;;;7.20;;
10651;SDS011;5374;42.742;23.266;2022-08-19T03:34:31;8.43;;;7.63;;
10651;SDS011;5374;42.742;23.266;2022-08-19T03:37:21;8.27;;;7.47;;
10651;SDS011;5374;42.742;23.266;2022-08-19T03:40:09;8.73;;;7.83;;
10651;SDS011;5374;42.742;23.266;2022-08-19T03:42:56;19.13;;;8.47;;
10651;SDS011;5374;42.742;23.266;2022-08-19T03:45:43;17.43;;;8.47;;
10651;SDS011;5374;42.742;23.266;2022-08-19T03:48:31;18.07;;;8.67;;
10651;SDS011;5374;42.742;23.266;2022-08-19T03:51:20;13.80;;;9.10;;
10651;SDS011;5374;42.742;23.266;2022-08-19T03:54:12;12.97;;;9.10;;
10651;SDS011;5374;42.742;23.266;2022-08-19T03:57:00;9.40;;;8.13;;
10651;SDS011;5374;42.742;23.266;2022-08-19T03:59:48;11.37;;;8.07;;
10651;SDS011;5374;42.742;23.266;2022-08-19T04:02:35;11.30;;;8.40;;
10651;SDS011;5374;42.742;23.266;2022-08-19T04:05:22;10.83;;;9.03;;
10651;SDS011;5374;42.742;23.266;2022-08-19T04:08:09;9.23;;;8.40;;
10651;SDS011;5374;42.742;23.266;2022-08-19T04:10:58;8.33;;;7.37;;
10651;SDS011;5374;42.742;23.266;2022-08-19T04:13:45;8.53;;;7.63;;
10651;SDS011;5374;42.742;23.266;2022-08-19T04:16:32;8.37;;;7.53;;
10651;SDS011;5374;42.742;23.266;2022-08-19T04:19:19;8.93;;;7.60;;
10651;SDS011;5374;42.742;23.266;2022-08-19T04:22:07;7.80;;;7.00;;
10651;SDS011;5374;42.742;23.266;2022-08-19T04:24:54;9.17;;;6.87;;
10651;SDS011;5374;42.742;23.266;2022-08-19T04:27:42;16.43;;;7.47;;
10651;SDS011;5374;42.742;23.266;2022-08-19T04:30:36;9.87;;;6.90;;
10651;SDS011;5374;42.742;23.266;2022-08-19T04:33:24;7.77;;;6.43;;
10651;SDS011;5374;42.742;23.266;2022-08-19T04:36:17;6.57;;;5.83;;
10651;SDS011;5374;42.742;23.266;2022-08-19T04:39:07;14.90;;;6.70;;
10651;SDS011;5374;42.742;23.266;2022-08-19T04:41:56;22.43;;;7.60;;
10651;SDS011;5374;42.742;23.266;2022-08-19T04:45:02;19.80;;;7.07;;
10651;SDS011;5374;42.742;23.266;2022-08-19T04:47:49;16.93;;;6.97;;
10651;SDS011;5374;42.742;23.266;2022-08-19T04:50:42;11.10;;;6.00;;
10651;SDS011;5374;42.742;23.266;2022-08-19T04:53:31;9.23;;;5.93;;
10651;SDS011;5374;42.742;23.266;2022-08-19T04:56:19;6.87;;;6.27;;
10651;SDS011;5374;42.742;23.266;2022-08-19T04:59:07;14.03;;;6.00;;
10651;SDS011;5374;42.742;23.266;2022-08-19T05:01:57;7.07;;;5.70;;
10651;SDS011;5374;42.742;23.266;2022-08-19T05:04:44;6.70;;;5.50;;
10651;SDS011;5374;42.742;23.266;2022-08-19T05:07:31;9.63;;;5.80;;
10651;SDS011;5374;42.742;23.266;2022-08-19T05:10:19;7.30;;;5.70;;
10651;SDS011;5374;42.742;23.266;2022-08-19T05:13:06;8.70;;;6.03;;
10651;SDS011;5374;42.742;23.266;2022-08-19T05:15:54;8.02;;;5.68;;
10651;SDS011;5374;42.742;23.266;2022-08-19T05:18:44;7.35;;;5.45;;
10651;SDS011;5374;42.742;23.266;2022-08-19T05:21:49;14.38;;;6.05;;
10651;SDS011;5374;42.742;23.266;2022-08-19T05:24:53;16.23;;;6.07;;
10651;SDS011;5374;42.742;23.266;2022-08-19T05:27:41;24.45;;;7.63;;
10651;SDS011;5374;42.742;23.266;2022-08-19T05:30:28;30.10;;;7.88;;
10651;SDS011;5374;42.742;23.266;2022-08-19T05:33:16;25.58;;;7.70;;
10651;SDS011;5374;42.742;23.266;2022-08-19T05:36:05;21.90;;;7.60;;
10651;SDS011;5374;42.742;23.266;2022-08-19T05:38:52;19.05;;;7.68;;
10651;SDS011;5374;42.742;23.266;2022-08-19T05:41:40;10.75;;;6.38;;
10651;SDS011;5374;42.742;23.266;2022-08-19T05:44:30;9.65;;;6.70;;
10651;SDS011;5374;42.742;23.266;2022-08-19T05:47:18;10.52;;;6.80;;
10651;SDS011;5374;42.742;23.266;2022-08-19T05:50:06;11.73;;;6.75;;
10651;SDS011;5374;42.742;23.266;2022-08-19T05:52:55;13.40;;;7.30;;
10651;SDS011;5374;42.742;23.266;2022-08-19T05:55:42;11.50;;;6.80;;
10651;SDS011;5374;42.742;23.266;2022-08-19T05:58:29;12.55;;;7.40;;
10651;SDS011;5374;42.742;23.266;2022-08-19T06:01:18;9.93;;;6.50;;
10651;SDS011;5374;42.742;23.266;2022-08-19T06:04:05;10.15;;;6.82;;
10651;SDS011;5374;42.742;23.266;2022-08-19T06:06:53;8.68;;;6.60;;
10651;SDS011;5374;42.742;23.266;2022-08-19T06:09:43;8.25;;;6.55;;
10651;SDS011;5374;42.742;23.266;2022-08-19T06:12:30;9.75;;;6.53;;
10651;SDS011;5374;42.742;23.266;2022-08-19T06:15:19;8.90;;;6.60;;
10651;SDS011;5374;42.742;23.266;2022-08-19T06:18:14;14.70;;;6.78;;
10651;SDS011;5374;42.742;23.266;2022-08-19T06:21:02;8.90;;;5.82;;
10651;SDS011;5374;42.742;23.266;2022-08-19T06:23:49;7.30;;;6.10;;
10651;SDS011;5374;42.742;23.266;2022-08-19T06:26:39;8.43;;;5.50;;
10651;SDS011;5374;42.742;23.266;2022-08-19T06:29:28;9.70;;;6.60;;
10651;SDS011;5374;42.742;23.266;2022-08-19T06:32:17;7.38;;;6.53;;
10651;SDS011;5374;42.742;23.266;2022-08-19T06:35:05;9.13;;;5.60;;
10651;SDS011;5374;42.742;23.266;2022-08-19T06:37:53;9.27;;;5.57;;
10651;SDS011;5374;42.742;23.266;2022-08-19T06:40:40;6.03;;;5.18;;
10651;SDS011;5374;42.742;23.266;2022-08-19T06:43:28;9.25;;;5.65;;
10651;SDS011;5374;42.742;23.266;2022-08-19T06:46:16;12.68;;;6.15;;
10651;SDS011;5374;42.742;23.266;2022-08-19T06:49:05;12.25;;;6.32;;
10651;SDS011;5374;42.742;23.266;2022-08-19T06:51:59;15.50;;;7.17;;
10651;SDS011;5374;42.742;23.266;2022-08-19T06:54:47;27.27;;;7.13;;
10651;SDS011;5374;42.742;23.266;2022-08-19T06:57:34;22.43;;;7.17;;
10651;SDS011;5374;42.742;23.266;2022-08-19T07:00:22;17.50;;;6.63;;
10651;SDS011;5374;42.742;23.266;2022-08-19T07:03:10;21.43;;;7.33;;
10651;SDS011;5374;42.742;23.266;2022-08-19T07:05:57;14.53;;;6.00;;
10651;SDS011;5374;42.742;23.266;2022-08-19T07:08:46;11.03;;;6.10;;
10651;SDS011;5374;42.742;23.266;2022-08-19T07:11:35;10.57;;;6.07;;
10651;SDS011;5374;42.742;23.266;2022-08-19T07:14:23;6.93;;;5.77;;
10651;SDS011;5374;42.742;23.266;2022-08-19T07:17:13;9.53;;;5.80;;
10651;SDS011;5374;42.742;23.266;2022-08-19T07:20:01;9.20;;;5.87;;
10651;SDS011;5374;42.742;23.266;2022-08-19T07:22:48;7.53;;;5.83;;
10651;SDS011;5374;42.742;23.266;2022-08-19T07:25:35;7.23;;;5.90;;
10651;SDS011;5374;42.742;23.266;2022-08-19T07:28:22;10.13;;;5.77;;
10651;SDS011;5374;42.742;23.266;2022-08-19T07:31:11;9.33;;;5.50;;
10651;SDS011;5374;42.742;23.266;2022-08-19T07:34:00;26.20;;;12.65;;
10651;SDS011;5374;42.742;23.266;2022-08-19T07:36:47;6.80;;;5.80;;
10651;SDS011;5374;42.742;23.266;2022-08-19T07:39:36;6.20;;;5.70;;
10651;SDS011;5374;42.742;23.266;2022-08-19T07:42:24;6.87;;;5.90;;
10651;SDS011;5374;42.742;23.266;2022-08-19T07:45:12;8.97;;;5.53;;
10651;SDS011;5374;42.742;23.266;2022-08-19T07:47:59;6.17;;;5.57;;
10651;SDS011;5374;42.742;23.266;2022-08-19T07:50:47;6.17;;;5.57;;
10651;SDS011;5374;42.742;23.266;2022-08-19T07:53:35;6.50;;;5.45;;
10651;SDS011;5374;42.742;23.266;2022-08-19T07:56:26;6.10;;;5.13;;
10651;SDS011;5374;42.742;23.266;2022-08-19T07:59:13;9.32;;;5.40;;
10651;SDS011;5374;42.742;23.266;2022-08-19T08:02:03;7.55;;;6.00;;
10651;SDS011;5374;42.742;23.266;2022-08-19T08:04:51;9.38;;;5.35;;
10651;SDS011;5374;42.742;23.266;2022-08-19T08:07:57;7.55;;;6.75;;
10651;SDS011;5374;42.742;23.266;2022-08-19T08:11:01;7.57;;;4.93;;
10651;SDS011;5374;42.742;23.266;2022-08-19T08:13:49;8.23;;;5.50;;
10651;SDS011;5374;42.742;23.266;2022-08-19T08:16:36;5.80;;;5.30;;
10651;SDS011;5374;42.742;23.266;2022-08-19T08:19:25;9.90;;;5.43;;
10651;SDS011;5374;42.742;23.266;2022-08-19T08:22:14;9.75;;;6.30;;
10651;SDS011;5374;42.742;23.266;2022-08-19T08:25:19;8.95;;;6.20;;
10651;SDS011;5374;42.742;23.266;2022-08-19T08:28:08;6.53;;;5.53;;
10651;SDS011;5374;42.742;23.266;2022-08-19T08:30:55;6.32;;;5.72;;
10651;SDS011;5374;42.742;23.266;2022-08-19T08:33:43;7.22;;;5.30;;
10651;SDS011;5374;42.742;23.266;2022-08-19T08:36:30;7.35;;;5.50;;
10651;SDS011;5374;42.742;23.266;2022-08-19T08:39:19;8.00;;;5.55;;
10651;SDS011;5374;42.742;23.266;2022-08-19T08:42:11;7.85;;;5.20;;
10651;SDS011;5374;42.742;23.266;2022-08-19T08:45:05;6.43;;;4.90;;
10651;SDS011;5374;42.742;23.266;2022-08-19T08:48:02;7.15;;;5.53;;
10651;SDS011;5374;42.742;23.266;2022-08-19T08:50:56;6.10;;;5.07;;
10651;SDS011;5374;42.742;23.266;2022-08-19T08:53:47;8.52;;;5.10;;
10651;SDS011;5374;42.742;23.266;2022-08-19T08:56:37;7.18;;;5.35;;
10651;SDS011;5374;42.742;23.266;2022-08-19T08:59:27;6.28;;;5.68;;
10651;SDS011;5374;42.742;23.266;2022-08-19T09:02:17;7.18;;;5.45;;
10651;SDS011;5374;42.742;23.266;2022-08-19T09:05:05;9.98;;;5.05;;
10651;SDS011;5374;42.742;23.266;2022-08-19T09:07:57;7.88;;;5.60;;
10651;SDS011;5374;42.742;23.266;2022-08-19T09:10:49;7.18;;;5.60;;
10651;SDS011;5374;42.742;23.266;2022-08-19T09:13:41;7.47;;;5.53;;
10651;SDS011;5374;42.742;23.266;2022-08-19T09:16:37;7.43;;;4.90;;
10651;SDS011;5374;42.742;23.266;2022-08-19T09:19:25;8.32;;;5.05;;
10651;SDS011;5374;42.742;23.266;2022-08-19T09:22:13;7.32;;;4.80;;
10651;SDS011;5374;42.742;23.266;2022-08-19T09:25:02;5.53;;;4.60;;
10651;SDS011;5374;42.742;23.266;2022-08-19T09:27:50;7.10;;;4.75;;
10651;SDS011;5374;42.742;23.266;2022-08-19T09:30:41;7.13;;;4.60;;
10651;SDS011;5374;42.742;23.266;2022-08-19T09:33:30;4.70;;;4.25;;
10651;SDS011;5374;42.742;23.266;2022-08-19T09:36:20;5.45;;;4.20;;
10651;SDS011;5374;42.742;23.266;2022-08-19T09:39:09;4.30;;;3.90;;
10651;SDS011;5374;42.742;23.266;2022-08-19T09:41:56;4.57;;;3.90;;
10651;SDS011;5374;42.742;23.266;2022-08-19T09:44:44;5.90;;;3.60;;
10651;SDS011;5374;42.742;23.266;2022-08-19T09:47:31;4.40;;;4.00;;
10651;SDS011;5374;42.742;23.266;2022-08-19T09:50:23;4.03;;;3.63;;
10651;SDS011;5374;42.742;23.266;2022-08-19T09:53:10;5.20;;;3.60;;
10651;SDS011;5374;42.742;23.266;2022-08-19T09:55:58;3.83;;;3.53;;
10651;SDS011;5374;42.742;23.266;2022-08-19T09:58:45;5.57;;;3.70;;
10651;SDS011;5374;42.742;23.266;2022-08-19T10:01:32;4.95;;;3.47;;
10651;SDS011;5374;42.742;23.266;2022-08-19T10:04:20;4.18;;;3.78;;
10651;SDS011;5374;42.742;23.266;2022-08-19T10:07:09;6.07;;;4.07;;
10651;SDS011;5374;42.742;23.266;2022-08-19T10:09:57;5.07;;;3.95;;
10651;SDS011;5374;42.742;23.266;2022-08-19T10:12:44;3.83;;;3.50;;
10651;SDS011;5374;42.742;23.266;2022-08-19T10:15:34;8.45;;;3.80;;
10651;SDS011;5374;42.742;23.266;2022-08-19T10:18:21;6.57;;;3.55;;
10651;SDS011;5374;42.742;23.266;2022-08-19T10:21:11;4.00;;;3.60;;
10651;SDS011;5374;42.742;23.266;2022-08-19T10:24:04;5.18;;;4.10;;
10651;SDS011;5374;42.742;23.266;2022-08-19T10:26:52;5.47;;;3.88;;
10651;SDS011;5374;42.742;23.266;2022-08-19T10:29:39;4.97;;;3.97;;
10651;SDS011;5374;42.742;23.266;2022-08-19T10:32:26;4.30;;;3.90;;
10651;SDS011;5374;42.742;23.266;2022-08-19T10:35:14;5.97;;;4.40;;
10651;SDS011;5374;42.742;23.266;2022-08-19T10:38:03;5.80;;;4.25;;
10651;SDS011;5374;42.742;23.266;2022-08-19T10:40:51;4.65;;;4.25;;
10651;SDS011;5374;42.742;23.266;2022-08-19T10:43:39;5.38;;;3.90;;
10651;SDS011;5374;42.742;23.266;2022-08-19T10:46:28;4.50;;;4.10;;
10651;SDS011;5374;42.742;23.266;2022-08-19T10:49:17;4.57;;;3.92;;
10651;SDS011;5374;42.742;23.266;2022-08-19T10:52:06;5.07;;;4.57;;
10651;SDS011;5374;42.742;23.266;2022-08-19T10:55:10;4.43;;;4.03;;
10651;SDS011;5374;42.742;23.266;2022-08-19T10:58:17;4.53;;;4.13;;
10651;SDS011;5374;42.742;23.266;2022-08-19T11:01:07;5.05;;;4.55;;
10651;SDS011;5374;42.742;23.266;2022-08-19T11:03:54;5.10;;;4.47;;
10651;SDS011;5374;42.742;23.266;2022-08-19T11:06:42;7.18;;;5.43;;
10651;SDS011;5374;42.742;23.266;2022-08-19T11:09:36;5.07;;;4.38;;
10651;SDS011;5374;42.742;23.266;2022-08-19T11:12:25;9.45;;;4.78;;
10651;SDS011;5374;42.742;23.266;2022-08-19T11:15:14;5.70;;;4.70;;
10651;SDS011;5374;42.742;23.266;2022-08-19T11:18:02;5.03;;;4.40;;
10651;SDS011;5374;42.742;23.266;2022-08-19T11:20:51;4.88;;;4.20;;
10651;SDS011;5374;42.742;23.266;2022-08-19T11:23:38;4.88;;;4.40;;
10651;SDS011;5374;42.742;23.266;2022-08-19T11:26:26;5.90;;;4.30;;
10651;SDS011;5374;42.742;23.266;2022-08-19T11:29:13;4.82;;;4.00;;
10651;SDS011;5374;42.742;23.266;2022-08-19T11:32:04;7.28;;;4.70;;
10651;SDS011;5374;42.742;23.266;2022-08-19T11:34:54;8.55;;;4.10;;
10651;SDS011;5374;42.742;23.266;2022-08-19T11:37:41;5.40;;;4.47;;
10651;SDS011;5374;42.742;23.266;2022-08-19T11:40:28;5.45;;;4.95;;
10651;SDS011;5374;42.742;23.266;2022-08-19T11:43:15;5.82;;;4.55;;
10651;SDS011;5374;42.742;23.266;2022-08-19T11:46:04;6.82;;;4.68;;
10651;SDS011;5374;42.742;23.266;2022-08-19T11:48:53;6.38;;;4.25;;
10651;SDS011;5374;42.742;23.266;2022-08-19T11:51:41;4.30;;;4.00;;
10651;SDS011;5374;42.742;23.266;2022-08-19T11:54:29;5.68;;;4.15;;
10651;SDS011;5374;42.742;23.266;2022-08-19T11:57:16;6.43;;;4.30;;
10651;SDS011;5374;42.742;23.266;2022-08-19T12:00:05;5.07;;;4.57;;
10651;SDS011;5374;42.742;23.266;2022-08-19T12:02:54;5.18;;;3.70;;
10651;SDS011;5374;42.742;23.266;2022-08-19T12:05:42;6.30;;;4.13;;
10651;SDS011;5374;42.742;23.266;2022-08-19T12:08:29;5.03;;;4.50;;
10651;SDS011;5374;42.742;23.266;2022-08-19T12:11:17;6.35;;;4.30;;
10651;SDS011;5374;42.742;23.266;2022-08-19T12:14:04;4.45;;;4.05;;
10651;SDS011;5374;42.742;23.266;2022-08-19T12:16:52;4.65;;;4.20;;
10651;SDS011;5374;42.742;23.266;2022-08-19T12:19:39;5.50;;;4.28;;
10651;SDS011;5374;42.742;23.266;2022-08-19T12:22:28;5.80;;;5.20;;
10651;SDS011;5374;42.742;23.266;2022-08-19T12:25:18;6.65;;;4.38;;
10651;SDS011;5374;42.742;23.266;2022-08-19T12:28:06;4.60;;;4.20;;
10651;SDS011;5374;42.742;23.266;2022-08-19T12:30:53;4.50;;;4.00;;
10651;SDS011;5374;42.742;23.266;2022-08-19T12:33:40;5.80;;;4.32;;
10651;SDS011;5374;42.742;23.266;2022-08-19T12:36:28;6.30;;;4.07;;
10651;SDS011;5374;42.742;23.266;2022-08-19T12:39:17;8.13;;;4.30;;
10651;SDS011;5374;42.742;23.266;2022-08-19T12:42:04;5.82;;;4.57;;
10651;SDS011;5374;42.742;23.266;2022-08-19T12:44:54;4.72;;;4.05;;
10651;SDS011;5374;42.742;23.266;2022-08-19T12:47:41;6.82;;;4.20;;
10651;SDS011;5374;42.742;23.266;2022-08-19T12:50:28;5.60;;;4.35;;
10651;SDS011;5374;42.742;23.266;2022-08-19T12:53:15;4.85;;;4.40;;
10651;SDS011;5374;42.742;23.266;2022-08-19T12:56:04;4.40;;;4.05;;
10651;SDS011;5374;42.742;23.266;2022-08-19T12:58:51;6.38;;;4.50;;
10651;SDS011;5374;42.742;23.266;2022-08-19T13:01:39;6.88;;;4.50;;
10651;SDS011;5374;42.742;23.266;2022-08-19T13:04:27;5.55;;;4.20;;
10651;SDS011;5374;42.742;23.266;2022-08-19T13:07:14;5.40;;;4.00;;
10651;SDS011;5374;42.742;23.266;2022-08-19T13:10:02;4.72;;;4.25;;
10651;SDS011;5374;42.742;23.266;2022-08-19T13:12:51;4.60;;;3.90;;
10651;SDS011;5374;42.742;23.266;2022-08-19T13:15:40;5.78;;;4.70;;
10651;SDS011;5374;42.742;23.266;2022-08-19T13:18:29;7.65;;;4.82;;
10651;SDS011;5374;42.742;23.266;2022-08-19T13:21:17;6.60;;;4.50;;
10651;SDS011;5374;42.742;23.266;2022-08-19T13:24:06;4.57;;;4.18;;
10651;SDS011;5374;42.742;23.266;2022-08-19T13:26:53;4.53;;;4.13;;
10651;SDS011;5374;42.742;23.266;2022-08-19T13:29:42;6.80;;;4.57;;
10651;SDS011;5374;42.742;23.266;2022-08-19T13:32:46;6.15;;;4.32;;
10651;SDS011;5374;42.742;23.266;2022-08-19T13:35:53;5.32;;;4.10;;
10651;SDS011;5374;42.742;23.266;2022-08-19T13:38:44;4.47;;;4.07;;
10651;SDS011;5374;42.742;23.266;2022-08-19T13:41:31;6.18;;;4.45;;
10651;SDS011;5374;42.742;23.266;2022-08-19T13:44:19;5.07;;;4.07;;
10651;SDS011;5374;42.742;23.266;2022-08-19T13:47:08;4.90;;;4.20;;
10651;SDS011;5374;42.742;23.266;2022-08-19T13:49:58;5.05;;;4.03;;
10651;SDS011;5374;42.742;23.266;2022-08-19T13:52:45;6.82;;;4.28;;
10651;SDS011;5374;42.742;23.266;2022-08-19T13:55:33;5.60;;;4.93;;
10651;SDS011;5374;42.742;23.266;2022-08-19T13:58:21;8.18;;;4.22;;
10651;SDS011;5374;42.742;23.266;2022-08-19T14:01:09;4.95;;;4.30;;
10651;SDS011;5374;42.742;23.266;2022-08-19T14:03:58;6.70;;;4.50;;
10651;SDS011;5374;42.742;23.266;2022-08-19T14:06:45;6.97;;;4.40;;
10651;SDS011;5374;42.742;23.266;2022-08-19T14:09:32;4.80;;;4.30;;
10651;SDS011;5374;42.742;23.266;2022-08-19T14:12:20;4.93;;;4.43;;
10651;SDS011;5374;42.742;23.266;2022-08-19T14:15:08;4.83;;;3.97;;
10651;SDS011;5374;42.742;23.266;2022-08-19T14:17:57;7.00;;;4.37;;
10651;SDS011;5374;42.742;23.266;2022-08-19T14:20:46;5.20;;;4.10;;
10651;SDS011;5374;42.742;23.266;2022-08-19T14:23:33;5.30;;;4.07;;
10651;SDS011;5374;42.742;23.266;2022-08-19T14:26:21;7.57;;;4.38;;
10651;SDS011;5374;42.742;23.266;2022-08-19T14:29:09;4.97;;;4.13;;
10651;SDS011;5374;42.742;23.266;2022-08-19T14:31:56;6.23;;;4.70;;
10651;SDS011;5374;42.742;23.266;2022-08-19T14:34:44;5.87;;;4.50;;
10651;SDS011;5374;42.742;23.266;2022-08-19T14:37:35;5.27;;;4.20;;
10651;SDS011;5374;42.742;23.266;2022-08-19T14:40:23;6.93;;;4.10;;
10651;SDS011;5374;42.742;23.266;2022-08-19T14:43:12;7.40;;;4.40;;
10651;SDS011;5374;42.742;23.266;2022-08-19T14:46:00;4.47;;;4.07;;
10651;SDS011;5374;42.742;23.266;2022-08-19T14:48:47;6.32;;;4.68;;
10651;SDS011;5374;42.742;23.266;2022-08-19T14:51:35;6.50;;;4.57;;
10651;SDS011;5374;42.742;23.266;2022-08-19T14:54:24;4.77;;;4.03;;
10651;SDS011;5374;42.742;23.266;2022-08-19T14:57:11;6.93;;;4.63;;
10651;SDS011;5374;42.742;23.266;2022-08-19T15:00:00;5.55;;;4.60;;
10651;SDS011;5374;42.742;23.266;2022-08-19T15:02:47;5.43;;;4.63;;
10651;SDS011;5374;42.742;23.266;2022-08-19T15:05:34;11.27;;;7.63;;
10651;SDS011;5374;42.742;23.266;2022-08-19T15:08:22;5.13;;;4.67;;
10651;SDS011;5374;42.742;23.266;2022-08-19T15:11:12;6.87;;;4.80;;
10651;SDS011;5374;42.742;23.266;2022-08-19T15:14:01;7.43;;;4.90;;
10651;SDS011;5374;42.742;23.266;2022-08-19T15:16:50;7.23;;;4.70;;
10651;SDS011;5374;42.742;23.266;2022-08-19T15:19:37;5.18;;;4.50;;
10651;SDS011;5374;42.742;23.266;2022-08-19T15:22:24;8.33;;;5.20;;
10651;SDS011;5374;42.742;23.266;2022-08-19T15:25:14;5.20;;;4.60;;
10651;SDS011;5374;42.742;23.266;2022-08-19T15:28:05;5.10;;;4.60;;
10651;SDS011;5374;42.742;23.266;2022-08-19T15:30:52;7.23;;;4.90;;
10651;SDS011;5374;42.742;23.266;2022-08-19T15:33:39;5.93;;;5.33;;
10651;SDS011;5374;42.742;23.266;2022-08-19T15:36:27;6.13;;;4.90;;
10651;SDS011;5374;42.742;23.266;2022-08-19T15:39:14;5.93;;;5.37;;
10651;SDS011;5374;42.742;23.266;2022-08-19T15:42:03;7.90;;;5.20;;
10651;SDS011;5374;42.742;23.266;2022-08-19T15:44:52;7.20;;;5.20;;
10651;SDS011;5374;42.742;23.266;2022-08-19T15:47:40;6.47;;;5.30;;
10651;SDS011;5374;42.742;23.266;2022-08-19T15:50:27;6.57;;;5.40;;
10651;SDS011;5374;42.742;23.266;2022-08-19T15:53:16;5.67;;;4.77;;
10651;SDS011;5374;42.742;23.266;2022-08-19T15:56:04;5.50;;;5.00;;
10651;SDS011;5374;42.742;23.266;2022-08-19T15:58:51;5.67;;;5.13;;
10651;SDS011;5374;42.742;23.266;2022-08-19T16:01:57;7.73;;;5.17;;
10651;SDS011;5374;42.742;23.266;2022-08-19T16:05:01;6.83;;;5.27;;
10651;SDS011;5374;42.742;23.266;2022-08-19T16:08:07;6.70;;;5.60;;
10651;SDS011;5374;42.742;23.266;2022-08-19T16:10:54;7.53;;;5.83;;
10651;SDS011;5374;42.742;23.266;2022-08-19T16:13:41;6.67;;;4.97;;
10651;SDS011;5374;42.742;23.266;2022-08-19T16:16:29;6.03;;;4.97;;
10651;SDS011;5374;42.742;23.266;2022-08-19T16:19:19;9.77;;;5.60;;
10651;SDS011;5374;42.742;23.266;2022-08-19T16:22:06;5.77;;;4.83;;
10651;SDS011;5374;42.742;23.266;2022-08-19T16:24:54;7.07;;;5.37;;
10651;SDS011;5374;42.742;23.266;2022-08-19T16:27:41;5.80;;;5.20;;
10651;SDS011;5374;42.742;23.266;2022-08-19T16:30:29;6.87;;;5.27;;
10651;SDS011;5374;42.742;23.266;2022-08-19T16:33:16;9.37;;;5.00;;
10651;SDS011;5374;42.742;23.266;2022-08-19T16:36:05;6.30;;;4.77;;
10651;SDS011;5374;42.742;23.266;2022-08-19T16:38:53;5.57;;;5.07;;
10651;SDS011;5374;42.742;23.266;2022-08-19T16:41:41;7.40;;;5.00;;
10651;SDS011;5374;42.742;23.266;2022-08-19T16:44:29;5.33;;;4.83;;
10651;SDS011;5374;42.742;23.266;2022-08-19T16:47:17;5.90;;;5.10;;
10651;SDS011;5374;42.742;23.266;2022-08-19T16:50:04;11.87;;;5.30;;
10651;SDS011;5374;42.742;23.266;2022-08-19T16:52:54;5.10;;;4.50;;
10651;SDS011;5374;42.742;23.266;2022-08-19T16:55:42;8.30;;;5.10;;